sensor_id;sensor_type;location;lat;lon;timestamp;P1;durP1;ratioP1;P2;durP2;ratioP2
2562;SDS011;1291;51.420;6.970;2022-08-14T00:00:04;5.72;;;5.22;;
2562;SDS011;1291;51.420;6.970;2022-08-14T00:02:33;8.73;;;5.72;;
2562;SDS011;1291;51.420;6.970;2022-08-14T00:04:58;4.80;;;4.40;;
2562;SDS011;1291;51.420;6.970;2022-08-14T00:07:24;5.65;;;5.15;;
2562;SDS011;1291;51.420;6.970;2022-08-14T00:09:49;8.38;;;5.47;;
2562;SDS011;1291;51.420;6.970;2022-08-14T00:12:14;5.20;;;4.72;;
2562;SDS011;1291;51.420;6.970;2022-08-14T00:14:42;6.65;;;5.45;;
2562;SDS011;1291;51.420;6.970;2022-08-14T00:17:08;5.47;;;4.97;;
2562;SDS011;1291;51.420;6.970;2022-08-14T00:19:33;5.43;;;4.93;;
2562;SDS011;1291;51.420;6.970;2022-08-14T00:22:02;5.25;;;4.85;;
2562;SDS011;1291;51.420;6.970;2022-08-14T00:24:28;5.55;;;4.90;;
2562;SDS011;1291;51.420;6.970;2022-08-14T00:26:53;7.10;;;4.88;;
2562;SDS011;1291;51.420;6.970;2022-08-14T00:29:18;5.70;;;5.10;;
2562;SDS011;1291;51.420;6.970;2022-08-14T00:31:44;5.60;;;4.93;;
2562;SDS011;1291;51.420;6.970;2022-08-14T00:34:10;5.50;;;5.00;;
2562;SDS011;1291;51.420;6.970;2022-08-14T00:36:35;6.00;;;4.78;;
2562;SDS011;1291;51.420;6.970;2022-08-14T00:39:01;7.90;;;5.63;;
2562;SDS011;1291;51.420;6.970;2022-08-14T00:41:31;6.13;;;5.53;;
2562;SDS011;1291;51.420;6.970;2022-08-14T00:43:57;5.47;;;4.97;;
2562;SDS011;1291;51.420;6.970;2022-08-14T00:46:23;6.00;;;5.50;;
2562;SDS011;1291;51.420;6.970;2022-08-14T00:48:49;6.38;;;5.78;;
2562;SDS011;1291;51.420;6.970;2022-08-14T00:51:14;6.75;;;5.35;;
2562;SDS011;1291;51.420;6.970;2022-08-14T00:53:43;5.78;;;4.90;;
2562;SDS011;1291;51.420;6.970;2022-08-14T00:56:12;6.07;;;5.57;;
2562;SDS011;1291;51.420;6.970;2022-08-14T00:58:37;6.18;;;5.65;;
2562;SDS011;1291;51.420;6.970;2022-08-14T01:01:09;6.93;;;6.22;;
2562;SDS011;1291;51.420;6.970;2022-08-14T01:03:36;6.57;;;5.57;;
2562;SDS011;1291;51.420;6.970;2022-08-14T01:06:04;7.07;;;6.28;;
2562;SDS011;1291;51.420;6.970;2022-08-14T01:08:33;9.10;;;5.88;;
2562;SDS011;1291;51.420;6.970;2022-08-14T01:10:59;7.90;;;5.78;;
2562;SDS011;1291;51.420;6.970;2022-08-14T01:13:27;6.07;;;5.57;;
2562;SDS011;1291;51.420;6.970;2022-08-14T01:15:56;5.82;;;5.30;;
2562;SDS011;1291;51.420;6.970;2022-08-14T01:18:23;6.13;;;5.63;;
2562;SDS011;1291;51.420;6.970;2022-08-14T01:21:08;8.70;;;6.00;;
2562;SDS011;1291;51.420;6.970;2022-08-14T01:23:44;6.22;;;5.70;;
2562;SDS011;1291;51.420;6.970;2022-08-14T01:26:11;6.78;;;6.18;;
2562;SDS011;1291;51.420;6.970;2022-08-14T01:28:46;7.35;;;5.75;;
2562;SDS011;1291;51.420;6.970;2022-08-14T01:31:16;6.97;;;6.35;;
2562;SDS011;1291;51.420;6.970;2022-08-14T01:33:44;5.68;;;5.18;;
2562;SDS011;1291;51.420;6.970;2022-08-14T01:36:14;7.30;;;5.90;;
2562;SDS011;1291;51.420;6.970;2022-08-14T01:38:41;6.57;;;5.95;;
2562;SDS011;1291;51.420;6.970;2022-08-14T01:41:09;6.22;;;5.70;;
2562;SDS011;1291;51.420;6.970;2022-08-14T01:43:53;6.53;;;5.85;;
2562;SDS011;1291;51.420;6.970;2022-08-14T01:46:26;7.60;;;5.88;;
2562;SDS011;1291;51.420;6.970;2022-08-14T01:48:53;6.97;;;5.70;;
2562;SDS011;1291;51.420;6.970;2022-08-14T01:51:21;8.05;;;6.00;;
2562;SDS011;1291;51.420;6.970;2022-08-14T01:53:53;7.35;;;6.30;;
2562;SDS011;1291;51.420;6.970;2022-08-14T01:56:30;7.07;;;5.85;;
2562;SDS011;1291;51.420;6.970;2022-08-14T01:59:02;6.32;;;5.72;;
2562;SDS011;1291;51.420;6.970;2022-08-14T02:01:29;6.05;;;5.55;;
2562;SDS011;1291;51.420;6.970;2022-08-14T02:03:54;7.05;;;6.22;;
2562;SDS011;1291;51.420;6.970;2022-08-14T02:06:20;8.18;;;6.03;;
2562;SDS011;1291;51.420;6.970;2022-08-14T02:08:45;6.70;;;6.03;;
2562;SDS011;1291;51.420;6.970;2022-08-14T02:11:11;8.98;;;6.60;;
2562;SDS011;1291;51.420;6.970;2022-08-14T02:13:53;6.30;;;5.72;;
2562;SDS011;1291;51.420;6.970;2022-08-14T02:16:29;6.40;;;5.90;;
2562;SDS011;1291;51.420;6.970;2022-08-14T02:18:57;6.63;;;5.88;;
2562;SDS011;1291;51.420;6.970;2022-08-14T02:21:26;7.10;;;6.40;;
2562;SDS011;1291;51.420;6.970;2022-08-14T02:23:57;6.22;;;5.72;;
2562;SDS011;1291;51.420;6.970;2022-08-14T02:26:25;6.68;;;6.07;;
2562;SDS011;1291;51.420;6.970;2022-08-14T02:29:05;6.30;;;5.80;;
2562;SDS011;1291;51.420;6.970;2022-08-14T02:31:42;7.05;;;6.20;;
2562;SDS011;1291;51.420;6.970;2022-08-14T02:34:15;6.68;;;6.07;;
2562;SDS011;1291;51.420;6.970;2022-08-14T02:36:45;7.82;;;6.90;;
2562;SDS011;1291;51.420;6.970;2022-08-14T02:39:15;7.68;;;6.80;;
2562;SDS011;1291;51.420;6.970;2022-08-14T02:41:42;6.97;;;6.28;;
2562;SDS011;1291;51.420;6.970;2022-08-14T02:44:09;7.00;;;6.30;;
2562;SDS011;1291;51.420;6.970;2022-08-14T02:46:39;7.18;;;6.53;;
2562;SDS011;1291;51.420;6.970;2022-08-14T02:49:11;8.65;;;6.47;;
2562;SDS011;1291;51.420;6.970;2022-08-14T02:51:37;7.30;;;6.57;;
2562;SDS011;1291;51.420;6.970;2022-08-14T02:54:04;7.57;;;6.97;;
2562;SDS011;1291;51.420;6.970;2022-08-14T02:56:31;7.60;;;6.78;;
2562;SDS011;1291;51.420;6.970;2022-08-14T02:58:57;7.53;;;6.70;;
2562;SDS011;1291;51.420;6.970;2022-08-14T03:01:26;7.07;;;6.45;;
2562;SDS011;1291;51.420;6.970;2022-08-14T03:03:52;9.25;;;6.57;;
2562;SDS011;1291;51.420;6.970;2022-08-14T03:06:20;7.35;;;6.65;;
2562;SDS011;1291;51.420;6.970;2022-08-14T03:08:48;8.30;;;7.50;;
2562;SDS011;1291;51.420;6.970;2022-08-14T03:11:14;7.82;;;7.13;;
2562;SDS011;1291;51.420;6.970;2022-08-14T03:13:40;9.07;;;7.30;;
2562;SDS011;1291;51.420;6.970;2022-08-14T03:16:09;7.78;;;6.97;;
2562;SDS011;1291;51.420;6.970;2022-08-14T03:18:42;8.20;;;7.45;;
2562;SDS011;1291;51.420;6.970;2022-08-14T03:21:11;8.45;;;7.65;;
2562;SDS011;1291;51.420;6.970;2022-08-14T03:23:39;7.43;;;6.70;;
2562;SDS011;1291;51.420;6.970;2022-08-14T03:26:07;8.43;;;7.03;;
2562;SDS011;1291;51.420;6.970;2022-08-14T03:28:37;8.02;;;7.20;;
2562;SDS011;1291;51.420;6.970;2022-08-14T03:31:07;8.27;;;7.53;;
2562;SDS011;1291;51.420;6.970;2022-08-14T03:33:33;9.30;;;6.88;;
2562;SDS011;1291;51.420;6.970;2022-08-14T03:36:04;8.60;;;6.85;;
2562;SDS011;1291;51.420;6.970;2022-08-14T03:38:36;7.05;;;6.45;;
2562;SDS011;1291;51.420;6.970;2022-08-14T03:41:11;9.38;;;7.93;;
2562;SDS011;1291;51.420;6.970;2022-08-14T03:43:43;7.75;;;7.05;;
2562;SDS011;1291;51.420;6.970;2022-08-14T03:46:10;7.55;;;6.85;;
2562;SDS011;1291;51.420;6.970;2022-08-14T03:48:38;8.45;;;7.65;;
2562;SDS011;1291;51.420;6.970;2022-08-14T03:51:05;8.13;;;7.05;;
2562;SDS011;1291;51.420;6.970;2022-08-14T03:53:35;9.25;;;7.32;;
2562;SDS011;1291;51.420;6.970;2022-08-14T03:56:02;8.05;;;7.28;;
2562;SDS011;1291;51.420;6.970;2022-08-14T03:58:28;7.95;;;7.25;;
2562;SDS011;1291;51.420;6.970;2022-08-14T04:00:56;8.18;;;7.47;;
2562;SDS011;1291;51.420;6.970;2022-08-14T04:03:23;8.40;;;7.65;;
2562;SDS011;1291;51.420;6.970;2022-08-14T04:05:50;8.63;;;7.13;;
2562;SDS011;1291;51.420;6.970;2022-08-14T04:08:17;7.85;;;6.82;;
2562;SDS011;1291;51.420;6.970;2022-08-14T04:10:43;13.13;;;7.75;;
2562;SDS011;1291;51.420;6.970;2022-08-14T04:13:13;8.98;;;7.68;;
2562;SDS011;1291;51.420;6.970;2022-08-14T04:15:45;8.48;;;7.68;;
2562;SDS011;1291;51.420;6.970;2022-08-14T04:18:12;8.02;;;7.32;;
2562;SDS011;1291;51.420;6.970;2022-08-14T04:20:38;9.38;;;7.68;;
2562;SDS011;1291;51.420;6.970;2022-08-14T04:23:06;8.35;;;7.55;;
2562;SDS011;1291;51.420;6.970;2022-08-14T04:25:32;8.15;;;7.45;;
2562;SDS011;1291;51.420;6.970;2022-08-14T04:27:59;7.95;;;7.25;;
2562;SDS011;1291;51.420;6.970;2022-08-14T04:30:25;8.82;;;7.90;;
2562;SDS011;1291;51.420;6.970;2022-08-14T04:32:55;8.98;;;8.07;;
2562;SDS011;1291;51.420;6.970;2022-08-14T04:35:21;8.95;;;8.05;;
2562;SDS011;1291;51.420;6.970;2022-08-14T04:37:47;9.43;;;8.57;;
2562;SDS011;1291;51.420;6.970;2022-08-14T04:40:31;8.20;;;7.50;;
2562;SDS011;1291;51.420;6.970;2022-08-14T04:43:16;8.88;;;8.07;;
2562;SDS011;1291;51.420;6.970;2022-08-14T04:46:00;8.57;;;7.68;;
2562;SDS011;1291;51.420;6.970;2022-08-14T04:48:29;8.45;;;7.75;;
2562;SDS011;1291;51.420;6.970;2022-08-14T04:50:55;8.45;;;7.65;;
2562;SDS011;1291;51.420;6.970;2022-08-14T04:53:21;9.02;;;8.05;;
2562;SDS011;1291;51.420;6.970;2022-08-14T04:55:48;8.50;;;7.72;;
2562;SDS011;1291;51.420;6.970;2022-08-14T04:58:15;9.55;;;8.55;;
2562;SDS011;1291;51.420;6.970;2022-08-14T05:00:43;8.85;;;8.05;;
2562;SDS011;1291;51.420;6.970;2022-08-14T05:03:09;9.18;;;8.38;;
2562;SDS011;1291;51.420;6.970;2022-08-14T05:05:34;8.45;;;7.70;;
2562;SDS011;1291;51.420;6.970;2022-08-14T05:08:13;8.15;;;7.45;;
2562;SDS011;1291;51.420;6.970;2022-08-14T05:10:39;9.57;;;8.23;;
2562;SDS011;1291;51.420;6.970;2022-08-14T05:13:07;9.25;;;8.05;;
2562;SDS011;1291;51.420;6.970;2022-08-14T05:15:34;9.07;;;7.90;;
2562;SDS011;1291;51.420;6.970;2022-08-14T05:18:11;9.50;;;8.45;;
2562;SDS011;1291;51.420;6.970;2022-08-14T05:20:40;9.40;;;8.38;;
2562;SDS011;1291;51.420;6.970;2022-08-14T05:23:08;8.70;;;7.90;;
2562;SDS011;1291;51.420;6.970;2022-08-14T05:25:34;9.48;;;8.10;;
2562;SDS011;1291;51.420;6.970;2022-08-14T05:30:52;12.40;;;8.57;;
2562;SDS011;1291;51.420;6.970;2022-08-14T05:33:20;10.25;;;8.77;;
2562;SDS011;1291;51.420;6.970;2022-08-14T05:35:48;9.95;;;8.93;;
2562;SDS011;1291;51.420;6.970;2022-08-14T05:38:16;9.48;;;8.57;;
2562;SDS011;1291;51.420;6.970;2022-08-14T05:40:43;10.38;;;9.27;;
2562;SDS011;1291;51.420;6.970;2022-08-14T05:43:08;9.40;;;8.50;;
2562;SDS011;1291;51.420;6.970;2022-08-14T05:45:34;9.57;;;8.70;;
2562;SDS011;1291;51.420;6.970;2022-08-14T05:48:01;8.88;;;8.05;;
2562;SDS011;1291;51.420;6.970;2022-08-14T05:50:29;9.68;;;8.77;;
2562;SDS011;1291;51.420;6.970;2022-08-14T05:52:55;9.10;;;8.30;;
2562;SDS011;1291;51.420;6.970;2022-08-14T05:55:21;12.02;;;8.55;;
2562;SDS011;1291;51.420;6.970;2022-08-14T05:57:53;14.05;;;9.20;;
2562;SDS011;1291;51.420;6.970;2022-08-14T06:00:24;10.52;;;8.85;;
2562;SDS011;1291;51.420;6.970;2022-08-14T06:03:10;10.60;;;8.48;;
2562;SDS011;1291;51.420;6.970;2022-08-14T06:05:45;10.15;;;8.50;;
2562;SDS011;1291;51.420;6.970;2022-08-14T06:08:25;9.00;;;8.13;;
2562;SDS011;1291;51.420;6.970;2022-08-14T06:10:53;11.25;;;8.45;;
2562;SDS011;1291;51.420;6.970;2022-08-14T06:13:20;9.48;;;8.57;;
2562;SDS011;1291;51.420;6.970;2022-08-14T06:15:47;9.65;;;8.65;;
2562;SDS011;1291;51.420;6.970;2022-08-14T06:18:15;10.02;;;8.75;;
2562;SDS011;1291;51.420;6.970;2022-08-14T06:20:41;10.80;;;9.73;;
2562;SDS011;1291;51.420;6.970;2022-08-14T06:23:07;13.27;;;9.52;;
2562;SDS011;1291;51.420;6.970;2022-08-14T06:25:32;9.70;;;8.45;;
2562;SDS011;1291;51.420;6.970;2022-08-14T06:27:58;9.77;;;8.75;;
2562;SDS011;1291;51.420;6.970;2022-08-14T06:30:27;9.55;;;8.60;;
2562;SDS011;1291;51.420;6.970;2022-08-14T06:32:55;10.90;;;9.70;;
2562;SDS011;1291;51.420;6.970;2022-08-14T06:35:21;9.73;;;8.82;;
2562;SDS011;1291;51.420;6.970;2022-08-14T06:40:23;9.63;;;8.73;;
2562;SDS011;1291;51.420;6.970;2022-08-14T06:42:53;9.55;;;8.65;;
2562;SDS011;1291;51.420;6.970;2022-08-14T06:45:39;8.98;;;8.10;;
2562;SDS011;1291;51.420;6.970;2022-08-14T06:48:22;9.50;;;8.50;;
2562;SDS011;1291;51.420;6.970;2022-08-14T06:50:48;8.82;;;8.02;;
2562;SDS011;1291;51.420;6.970;2022-08-14T06:53:15;11.27;;;9.02;;
2562;SDS011;1291;51.420;6.970;2022-08-14T06:55:44;8.63;;;7.82;;
2562;SDS011;1291;51.420;6.970;2022-08-14T06:58:14;11.15;;;9.00;;
2562;SDS011;1291;51.420;6.970;2022-08-14T07:00:41;9.05;;;8.15;;
2562;SDS011;1291;51.420;6.970;2022-08-14T07:03:27;10.60;;;8.63;;
2562;SDS011;1291;51.420;6.970;2022-08-14T07:06:12;9.43;;;8.45;;
2562;SDS011;1291;51.420;6.970;2022-08-14T07:08:38;8.75;;;7.90;;
2562;SDS011;1291;51.420;6.970;2022-08-14T07:11:04;9.05;;;8.15;;
2562;SDS011;1291;51.420;6.970;2022-08-14T07:13:30;9.63;;;8.55;;
2562;SDS011;1291;51.420;6.970;2022-08-14T07:15:55;9.52;;;8.63;;
2562;SDS011;1291;51.420;6.970;2022-08-14T07:18:23;12.18;;;8.70;;
2562;SDS011;1291;51.420;6.970;2022-08-14T07:20:50;9.90;;;8.98;;
2562;SDS011;1291;51.420;6.970;2022-08-14T07:23:17;8.95;;;8.10;;
2562;SDS011;1291;51.420;6.970;2022-08-14T07:25:43;9.68;;;8.70;;
2562;SDS011;1291;51.420;6.970;2022-08-14T07:30:45;9.50;;;8.60;;
2562;SDS011;1291;51.420;6.970;2022-08-14T07:33:11;9.20;;;8.30;;
2562;SDS011;1291;51.420;6.970;2022-08-14T07:35:38;9.55;;;8.55;;
2562;SDS011;1291;51.420;6.970;2022-08-14T07:38:05;9.95;;;8.98;;
2562;SDS011;1291;51.420;6.970;2022-08-14T07:40:31;9.80;;;8.48;;
2562;SDS011;1291;51.420;6.970;2022-08-14T07:42:58;9.57;;;8.68;;
2562;SDS011;1291;51.420;6.970;2022-08-14T07:45:25;9.32;;;8.38;;
2562;SDS011;1291;51.420;6.970;2022-08-14T07:47:51;9.95;;;8.95;;
2562;SDS011;1291;51.420;6.970;2022-08-14T07:50:17;9.90;;;8.70;;
2562;SDS011;1291;51.420;6.970;2022-08-14T07:52:46;9.57;;;8.57;;
2562;SDS011;1291;51.420;6.970;2022-08-14T07:55:13;9.68;;;8.73;;
2562;SDS011;1291;51.420;6.970;2022-08-14T07:57:40;9.15;;;8.27;;
2562;SDS011;1291;51.420;6.970;2022-08-14T08:00:16;9.35;;;8.45;;
2562;SDS011;1291;51.420;6.970;2022-08-14T08:02:45;8.32;;;7.63;;
2562;SDS011;1291;51.420;6.970;2022-08-14T08:05:13;9.00;;;8.00;;
2562;SDS011;1291;51.420;6.970;2022-08-14T08:07:40;8.30;;;7.40;;
2562;SDS011;1291;51.420;6.970;2022-08-14T08:12:53;8.68;;;7.68;;
2562;SDS011;1291;51.420;6.970;2022-08-14T08:15:21;8.70;;;7.90;;
2562;SDS011;1291;51.420;6.970;2022-08-14T08:17:48;8.40;;;7.47;;
2562;SDS011;1291;51.420;6.970;2022-08-14T08:20:18;8.55;;;7.68;;
2562;SDS011;1291;51.420;6.970;2022-08-14T08:22:48;9.52;;;7.40;;
2562;SDS011;1291;51.420;6.970;2022-08-14T08:25:15;7.97;;;7.28;;
2562;SDS011;1291;51.420;6.970;2022-08-14T08:27:41;8.70;;;7.90;;
2562;SDS011;1291;51.420;6.970;2022-08-14T08:30:07;9.55;;;8.23;;
2562;SDS011;1291;51.420;6.970;2022-08-14T08:32:37;9.13;;;8.30;;
2562;SDS011;1291;51.420;6.970;2022-08-14T08:35:04;7.78;;;6.97;;
2562;SDS011;1291;51.420;6.970;2022-08-14T08:37:29;9.20;;;8.38;;
2562;SDS011;1291;51.420;6.970;2022-08-14T08:39:59;12.35;;;7.78;;
2562;SDS011;1291;51.420;6.970;2022-08-14T08:42:25;7.97;;;7.28;;
2562;SDS011;1291;51.420;6.970;2022-08-14T08:44:54;9.45;;;8.13;;
2562;SDS011;1291;51.420;6.970;2022-08-14T08:47:19;10.65;;;7.90;;
2562;SDS011;1291;51.420;6.970;2022-08-14T08:49:45;8.20;;;7.50;;
2562;SDS011;1291;51.420;6.970;2022-08-14T08:52:10;8.10;;;7.35;;
2562;SDS011;1291;51.420;6.970;2022-08-14T08:54:37;8.48;;;7.57;;
2562;SDS011;1291;51.420;6.970;2022-08-14T08:57:09;8.90;;;8.07;;
2562;SDS011;1291;51.420;6.970;2022-08-14T08:59:38;8.60;;;7.75;;
2562;SDS011;1291;51.420;6.970;2022-08-14T09:02:05;8.35;;;7.65;;
2562;SDS011;1291;51.420;6.970;2022-08-14T09:04:33;8.40;;;7.68;;
2562;SDS011;1291;51.420;6.970;2022-08-14T09:07:04;7.82;;;7.13;;
2562;SDS011;1291;51.420;6.970;2022-08-14T09:09:30;8.50;;;7.70;;
2562;SDS011;1291;51.420;6.970;2022-08-14T09:12:00;7.40;;;6.75;;
2562;SDS011;1291;51.420;6.970;2022-08-14T09:14:28;8.48;;;7.57;;
2562;SDS011;1291;51.420;6.970;2022-08-14T09:16:55;8.98;;;7.28;;
2562;SDS011;1291;51.420;6.970;2022-08-14T09:19:22;7.72;;;6.53;;
2562;SDS011;1291;51.420;6.970;2022-08-14T09:21:47;7.57;;;6.82;;
2562;SDS011;1291;51.420;6.970;2022-08-14T09:24:13;7.70;;;7.07;;
2562;SDS011;1291;51.420;6.970;2022-08-14T09:26:39;6.85;;;6.25;;
2562;SDS011;1291;51.420;6.970;2022-08-14T09:29:06;7.00;;;6.40;;
2562;SDS011;1291;51.420;6.970;2022-08-14T09:31:34;6.97;;;6.28;;
2562;SDS011;1291;51.420;6.970;2022-08-14T09:45:35;7.30;;;5.90;;
2562;SDS011;1291;51.420;6.970;2022-08-14T09:48:18;7.00;;;6.38;;
2562;SDS011;1291;51.420;6.970;2022-08-14T09:50:51;10.32;;;6.25;;
2562;SDS011;1291;51.420;6.970;2022-08-14T09:56:24;6.93;;;6.25;;
2562;SDS011;1291;51.420;6.970;2022-08-14T09:58:49;6.20;;;5.70;;
2562;SDS011;1291;51.420;6.970;2022-08-14T10:01:17;7.30;;;6.28;;
2562;SDS011;1291;51.420;6.970;2022-08-14T10:03:47;7.28;;;6.57;;
2562;SDS011;1291;51.420;6.970;2022-08-14T10:06:16;8.35;;;6.40;;
2562;SDS011;1291;51.420;6.970;2022-08-14T10:08:47;7.45;;;6.78;;
2562;SDS011;1291;51.420;6.970;2022-08-14T10:11:32;7.47;;;6.47;;
2562;SDS011;1291;51.420;6.970;2022-08-14T10:16:45;7.65;;;6.97;;
2562;SDS011;1291;51.420;6.970;2022-08-14T10:19:14;7.15;;;6.50;;
2562;SDS011;1291;51.420;6.970;2022-08-14T10:21:44;6.63;;;6.03;;
2562;SDS011;1291;51.420;6.970;2022-08-14T10:24:58;6.82;;;6.22;;
2562;SDS011;1291;51.420;6.970;2022-08-14T10:27:18;6.90;;;6.30;;
2562;SDS011;1291;51.420;6.970;2022-08-14T10:29:49;7.72;;;7.03;;
2562;SDS011;1291;51.420;6.970;2022-08-14T10:32:17;7.40;;;6.25;;
2562;SDS011;1291;51.420;6.970;2022-08-14T10:34:42;6.35;;;5.85;;
2562;SDS011;1291;51.420;6.970;2022-08-14T10:37:10;6.60;;;6.00;;
2562;SDS011;1291;51.420;6.970;2022-08-14T10:39:41;6.65;;;6.13;;
2562;SDS011;1291;51.420;6.970;2022-08-14T10:42:12;6.93;;;6.32;;
2562;SDS011;1291;51.420;6.970;2022-08-14T10:44:43;6.47;;;5.88;;
2562;SDS011;1291;51.420;6.970;2022-08-14T10:47:12;7.15;;;5.82;;
2562;SDS011;1291;51.420;6.970;2022-08-14T10:49:40;6.70;;;5.72;;
2562;SDS011;1291;51.420;6.970;2022-08-14T10:52:24;6.90;;;6.30;;
2562;SDS011;1291;51.420;6.970;2022-08-14T10:55:03;7.35;;;6.60;;
2562;SDS011;1291;51.420;6.970;2022-08-14T10:57:32;6.38;;;5.88;;
2562;SDS011;1291;51.420;6.970;2022-08-14T11:00:00;8.48;;;6.45;;
2562;SDS011;1291;51.420;6.970;2022-08-14T11:02:37;6.80;;;6.20;;
2562;SDS011;1291;51.420;6.970;2022-08-14T11:05:07;6.65;;;6.13;;
2562;SDS011;1291;51.420;6.970;2022-08-14T11:07:53;6.13;;;5.63;;
2562;SDS011;1291;51.420;6.970;2022-08-14T11:10:23;8.40;;;6.53;;
2562;SDS011;1291;51.420;6.970;2022-08-14T11:12:51;7.97;;;6.40;;
2562;SDS011;1291;51.420;6.970;2022-08-14T11:15:24;7.43;;;6.20;;
2562;SDS011;1291;51.420;6.970;2022-08-14T11:17:59;7.03;;;6.43;;
2562;SDS011;1291;51.420;6.970;2022-08-14T11:20:28;6.72;;;6.13;;
2562;SDS011;1291;51.420;6.970;2022-08-14T11:22:55;6.35;;;5.85;;
2562;SDS011;1291;51.420;6.970;2022-08-14T11:25:23;7.85;;;6.57;;
2562;SDS011;1291;51.420;6.970;2022-08-14T11:27:52;7.68;;;6.70;;
2562;SDS011;1291;51.420;6.970;2022-08-14T11:30:20;8.68;;;6.32;;
2562;SDS011;1291;51.420;6.970;2022-08-14T11:32:47;6.32;;;5.82;;
2562;SDS011;1291;51.420;6.970;2022-08-14T11:35:18;6.47;;;5.85;;
2562;SDS011;1291;51.420;6.970;2022-08-14T11:37:52;6.57;;;5.97;;
2562;SDS011;1291;51.420;6.970;2022-08-14T11:40:18;7.57;;;6.88;;
2562;SDS011;1291;51.420;6.970;2022-08-14T11:42:46;7.15;;;6.45;;
2562;SDS011;1291;51.420;6.970;2022-08-14T11:45:12;7.72;;;7.00;;
2562;SDS011;1291;51.420;6.970;2022-08-14T11:47:39;6.95;;;6.05;;
2562;SDS011;1291;51.420;6.970;2022-08-14T11:52:43;7.40;;;6.43;;
2562;SDS011;1291;51.420;6.970;2022-08-14T11:55:11;6.85;;;6.25;;
2562;SDS011;1291;51.420;6.970;2022-08-14T11:57:38;7.38;;;6.65;;
2562;SDS011;1291;51.420;6.970;2022-08-14T12:00:09;6.93;;;6.32;;
2562;SDS011;1291;51.420;6.970;2022-08-14T12:02:49;7.53;;;6.82;;
2562;SDS011;1291;51.420;6.970;2022-08-14T12:05:35;7.28;;;6.53;;
2562;SDS011;1291;51.420;6.970;2022-08-14T12:08:06;8.07;;;6.78;;
2562;SDS011;1291;51.420;6.970;2022-08-14T12:10:34;7.35;;;6.40;;
2562;SDS011;1291;51.420;6.970;2022-08-14T12:13:14;8.93;;;6.88;;
2562;SDS011;1291;51.420;6.970;2022-08-14T12:15:40;7.38;;;6.78;;
2562;SDS011;1291;51.420;6.970;2022-08-14T12:18:06;7.63;;;6.97;;
2562;SDS011;1291;51.420;6.970;2022-08-14T12:20:33;6.78;;;6.18;;
2562;SDS011;1291;51.420;6.970;2022-08-14T12:23:01;7.15;;;6.40;;
2562;SDS011;1291;51.420;6.970;2022-08-14T12:25:29;6.97;;;6.28;;
2562;SDS011;1291;51.420;6.970;2022-08-14T12:27:55;6.22;;;5.65;;
2562;SDS011;1291;51.420;6.970;2022-08-14T12:30:30;5.60;;;5.20;;
2562;SDS011;1291;51.420;6.970;2022-08-14T12:33:01;6.07;;;5.47;;
2562;SDS011;1291;51.420;6.970;2022-08-14T12:35:38;6.47;;;5.88;;
2562;SDS011;1291;51.420;6.970;2022-08-14T12:38:08;5.95;;;5.45;;
2562;SDS011;1291;51.420;6.970;2022-08-14T12:40:47;7.30;;;5.43;;
2562;SDS011;1291;51.420;6.970;2022-08-14T12:43:15;5.70;;;5.20;;
2562;SDS011;1291;51.420;6.970;2022-08-14T12:45:45;7.30;;;5.85;;
2562;SDS011;1291;51.420;6.970;2022-08-14T12:48:16;7.43;;;6.20;;
2562;SDS011;1291;51.420;6.970;2022-08-14T12:50:43;9.88;;;6.20;;
2562;SDS011;1291;51.420;6.970;2022-08-14T12:53:10;6.00;;;5.50;;
2562;SDS011;1291;51.420;6.970;2022-08-14T12:55:37;6.22;;;5.63;;
2562;SDS011;1291;51.420;6.970;2022-08-14T12:58:04;5.70;;;5.22;;
2562;SDS011;1291;51.420;6.970;2022-08-14T13:00:32;6.97;;;5.15;;
2562;SDS011;1291;51.420;6.970;2022-08-14T13:02:59;5.80;;;5.20;;
2562;SDS011;1291;51.420;6.970;2022-08-14T13:05:26;6.35;;;4.95;;
2562;SDS011;1291;51.420;6.970;2022-08-14T13:07:54;6.20;;;4.90;;
2562;SDS011;1291;51.420;6.970;2022-08-14T13:10:21;5.22;;;4.82;;
2562;SDS011;1291;51.420;6.970;2022-08-14T13:12:48;5.32;;;4.75;;
2562;SDS011;1291;51.420;6.970;2022-08-14T13:15:15;5.38;;;4.95;;
2562;SDS011;1291;51.420;6.970;2022-08-14T13:17:48;6.35;;;5.85;;
2562;SDS011;1291;51.420;6.970;2022-08-14T13:20:17;6.88;;;5.55;;
2562;SDS011;1291;51.420;6.970;2022-08-14T13:22:44;8.40;;;5.50;;
2562;SDS011;1291;51.420;6.970;2022-08-14T13:25:11;5.95;;;5.28;;
2562;SDS011;1291;51.420;6.970;2022-08-14T13:27:38;6.47;;;5.88;;
2562;SDS011;1291;51.420;6.970;2022-08-14T13:30:05;5.50;;;5.10;;
2562;SDS011;1291;51.420;6.970;2022-08-14T13:32:34;5.88;;;5.28;;
2562;SDS011;1291;51.420;6.970;2022-08-14T13:35:01;6.25;;;5.65;;
2562;SDS011;1291;51.420;6.970;2022-08-14T13:37:27;5.38;;;4.88;;
2562;SDS011;1291;51.420;6.970;2022-08-14T13:39:54;5.88;;;5.35;;
2562;SDS011;1291;51.420;6.970;2022-08-14T13:42:20;5.10;;;4.70;;
2562;SDS011;1291;51.420;6.970;2022-08-14T13:44:50;5.40;;;5.00;;
2562;SDS011;1291;51.420;6.970;2022-08-14T13:47:21;5.88;;;5.38;;
2562;SDS011;1291;51.420;6.970;2022-08-14T13:49:49;6.13;;;5.55;;
2562;SDS011;1291;51.420;6.970;2022-08-14T13:52:19;5.50;;;5.03;;
2562;SDS011;1291;51.420;6.970;2022-08-14T13:54:47;5.53;;;4.85;;
2562;SDS011;1291;51.420;6.970;2022-08-14T13:57:15;5.60;;;5.05;;
2562;SDS011;1291;51.420;6.970;2022-08-14T13:59:48;5.32;;;4.68;;
2562;SDS011;1291;51.420;6.970;2022-08-14T14:02:15;5.57;;;5.18;;
2562;SDS011;1291;51.420;6.970;2022-08-14T14:04:43;7.50;;;5.00;;
2562;SDS011;1291;51.420;6.970;2022-08-14T14:07:14;6.68;;;4.82;;
2562;SDS011;1291;51.420;6.970;2022-08-14T14:09:47;5.47;;;5.07;;
2562;SDS011;1291;51.420;6.970;2022-08-14T14:12:13;5.32;;;4.82;;
2562;SDS011;1291;51.420;6.970;2022-08-14T14:14:40;5.38;;;4.78;;
2562;SDS011;1291;51.420;6.970;2022-08-14T14:17:08;5.20;;;4.80;;
2562;SDS011;1291;51.420;6.970;2022-08-14T14:19:41;5.28;;;4.85;;
2562;SDS011;1291;51.420;6.970;2022-08-14T14:22:12;5.10;;;4.70;;
2562;SDS011;1291;51.420;6.970;2022-08-14T14:24:47;5.70;;;5.20;;
2562;SDS011;1291;51.420;6.970;2022-08-14T14:27:12;5.20;;;4.80;;
2562;SDS011;1291;51.420;6.970;2022-08-14T14:29:39;5.80;;;5.30;;
2562;SDS011;1291;51.420;6.970;2022-08-14T14:32:17;5.95;;;5.25;;
2562;SDS011;1291;51.420;6.970;2022-08-14T14:34:43;5.25;;;4.85;;
2562;SDS011;1291;51.420;6.970;2022-08-14T14:37:09;5.43;;;4.95;;
2562;SDS011;1291;51.420;6.970;2022-08-14T14:39:39;5.63;;;5.13;;
2562;SDS011;1291;51.420;6.970;2022-08-14T14:42:05;5.65;;;5.15;;
2562;SDS011;1291;51.420;6.970;2022-08-14T14:44:33;5.05;;;4.65;;
2562;SDS011;1291;51.420;6.970;2022-08-14T14:47:06;5.65;;;5.15;;
2562;SDS011;1291;51.420;6.970;2022-08-14T14:49:32;5.80;;;5.30;;
2562;SDS011;1291;51.420;6.970;2022-08-14T14:51:58;5.20;;;4.80;;
2562;SDS011;1291;51.420;6.970;2022-08-14T14:54:24;5.78;;;5.25;;
2562;SDS011;1291;51.420;6.970;2022-08-14T14:56:51;5.47;;;4.97;;
2562;SDS011;1291;51.420;6.970;2022-08-14T14:59:17;5.32;;;4.93;;
2562;SDS011;1291;51.420;6.970;2022-08-14T15:01:46;5.72;;;5.22;;
2562;SDS011;1291;51.420;6.970;2022-08-14T15:04:13;7.90;;;5.25;;
2562;SDS011;1291;51.420;6.970;2022-08-14T15:06:39;5.60;;;4.90;;
2562;SDS011;1291;51.420;6.970;2022-08-14T15:09:05;5.10;;;4.70;;
2562;SDS011;1291;51.420;6.970;2022-08-14T15:11:32;5.43;;;5.00;;
2562;SDS011;1291;51.420;6.970;2022-08-14T15:14:00;5.28;;;4.88;;
2562;SDS011;1291;51.420;6.970;2022-08-14T15:16:26;5.43;;;5.03;;
2562;SDS011;1291;51.420;6.970;2022-08-14T15:18:52;5.30;;;4.90;;
2562;SDS011;1291;51.420;6.970;2022-08-14T15:21:18;5.68;;;5.15;;
2562;SDS011;1291;51.420;6.970;2022-08-14T15:23:44;5.25;;;4.75;;
2562;SDS011;1291;51.420;6.970;2022-08-14T15:26:12;4.90;;;4.50;;
2562;SDS011;1291;51.420;6.970;2022-08-14T15:28:39;5.97;;;5.40;;
2562;SDS011;1291;51.420;6.970;2022-08-14T15:31:05;5.30;;;4.90;;
2562;SDS011;1291;51.420;6.970;2022-08-14T15:33:31;5.07;;;4.68;;
2562;SDS011;1291;51.420;6.970;2022-08-14T15:36:15;10.07;;;4.93;;
2562;SDS011;1291;51.420;6.970;2022-08-14T15:38:42;5.10;;;4.70;;
2562;SDS011;1291;51.420;6.970;2022-08-14T15:41:08;4.72;;;4.32;;
2562;SDS011;1291;51.420;6.970;2022-08-14T15:43:34;5.65;;;4.43;;
2562;SDS011;1291;51.420;6.970;2022-08-14T15:46:01;4.95;;;4.55;;
2562;SDS011;1291;51.420;6.970;2022-08-14T15:48:28;5.15;;;4.75;;
2562;SDS011;1291;51.420;6.970;2022-08-14T15:50:54;6.03;;;4.72;;
2562;SDS011;1291;51.420;6.970;2022-08-14T15:53:20;5.63;;;5.07;;
2562;SDS011;1291;51.420;6.970;2022-08-14T15:55:49;5.20;;;4.75;;